Murphy's Hourly Summary for Friday, April 14, 2017
Hour Temp
(f)
RH
(%)
Solar Rad.
(MJ/m2)
Rainfall
(in)
Wind
(mph)
4/14/2017 12:00 AM 69 65 0 0 1.96
4/14/2017 1:00 AM 68 66 0 0 3.39
4/14/2017 2:00 AM 68 60 0 0 4.18
4/14/2017 3:00 AM 69 60 0 0 5.03
4/14/2017 4:00 AM 67 63 0 0 4.31
4/14/2017 5:00 AM 65 70 0 0 1.91
4/14/2017 6:00 AM 65 75 0 0 1.32
4/14/2017 7:00 AM 65 76 0 0 1.41
4/14/2017 8:00 AM 64 79 0.2 0 2
4/14/2017 9:00 AM 64 82 0.42 0 3.06
4/14/2017 10:00 AM 66 76 1.1 0 4.54
4/14/2017 11:00 AM 70 59 1.93 0 4.74
4/14/2017 12:00 PM 73 48 2.03 0 6.55
4/14/2017 1:00 PM 75 47 2.98 0 7.58
4/14/2017 2:00 PM 76 42 2.19 0 6.8
4/14/2017 3:00 PM 78 42 3.27 0 7.13
4/14/2017 4:00 PM 78 42 2.68 0 6.69
4/14/2017 5:00 PM 79 40 1.26 0 6.35
4/14/2017 6:00 PM 79 41 1.68 0 6.18
4/14/2017 7:00 PM 77 43 0.41 0 5.81
4/14/2017 8:00 PM 75 45 0.08 0 3.98
4/14/2017 9:00 PM 73 51 0 0 2.51
4/14/2017 10:00 PM 72 55 0 0 2.14
4/14/2017 11:00 PM 70 60 0 0 1.2
Data Summary 71 57 20.23 0.00 4.20